sensor_id;sensor_type;location;lat;lon;timestamp;temperature;humidity
42913;DHT22;50720;54.324;18.558;2023-07-09T00:00:29;13.70;99.90
42913;DHT22;50720;54.324;18.558;2023-07-09T00:03:19;13.60;99.90
42913;DHT22;50720;54.324;18.558;2023-07-09T00:05:50;13.60;99.90
42913;DHT22;50720;54.324;18.558;2023-07-09T00:08:25;13.70;99.90
42913;DHT22;50720;54.324;18.558;2023-07-09T00:10:57;13.60;99.90
42913;DHT22;50720;54.324;18.558;2023-07-09T00:13:28;13.60;99.90
42913;DHT22;50720;54.324;18.558;2023-07-09T00:16:01;13.60;99.90
42913;DHT22;50720;54.324;18.558;2023-07-09T00:18:31;13.60;99.90
42913;DHT22;50720;54.324;18.558;2023-07-09T00:21:03;13.60;99.90
42913;DHT22;50720;54.324;18.558;2023-07-09T00:23:33;13.60;99.90
42913;DHT22;50720;54.324;18.558;2023-07-09T00:26:07;13.60;99.90
42913;DHT22;50720;54.324;18.558;2023-07-09T00:28:39;13.60;99.90
42913;DHT22;50720;54.324;18.558;2023-07-09T00:31:12;13.60;99.90
42913;DHT22;50720;54.324;18.558;2023-07-09T00:33:43;13.60;99.90
42913;DHT22;50720;54.324;18.558;2023-07-09T00:36:16;13.60;99.90
42913;DHT22;50720;54.324;18.558;2023-07-09T00:38:47;13.60;99.90
42913;DHT22;50720;54.324;18.558;2023-07-09T00:41:19;13.70;99.90
42913;DHT22;50720;54.324;18.558;2023-07-09T00:43:51;13.70;99.90
42913;DHT22;50720;54.324;18.558;2023-07-09T00:49:30;13.70;99.90
42913;DHT22;50720;54.324;18.558;2023-07-09T00:52:07;13.80;99.90
42913;DHT22;50720;54.324;18.558;2023-07-09T00:54:43;13.70;99.90
42913;DHT22;50720;54.324;18.558;2023-07-09T00:57:17;13.50;99.90
42913;DHT22;50720;54.324;18.558;2023-07-09T00:59:53;13.50;99.90
42913;DHT22;50720;54.324;18.558;2023-07-09T01:02:26;13.50;99.90
42913;DHT22;50720;54.324;18.558;2023-07-09T01:04:58;13.50;99.90
42913;DHT22;50720;54.324;18.558;2023-07-09T01:07:31;13.40;99.90
42913;DHT22;50720;54.324;18.558;2023-07-09T01:10:03;13.40;99.90
42913;DHT22;50720;54.324;18.558;2023-07-09T01:12:32;13.30;99.90
42913;DHT22;50720;54.324;18.558;2023-07-09T01:15:04;13.30;99.90
42913;DHT22;50720;54.324;18.558;2023-07-09T01:17:36;13.30;99.90
42913;DHT22;50720;54.324;18.558;2023-07-09T01:20:07;13.20;99.90
42913;DHT22;50720;54.324;18.558;2023-07-09T01:22:40;13.20;99.90
42913;DHT22;50720;54.324;18.558;2023-07-09T01:25:10;13.20;99.90
42913;DHT22;50720;54.324;18.558;2023-07-09T01:27:41;13.20;99.90
42913;DHT22;50720;54.324;18.558;2023-07-09T01:30:13;13.20;99.90
42913;DHT22;50720;54.324;18.558;2023-07-09T01:32:44;13.10;99.90
42913;DHT22;50720;54.324;18.558;2023-07-09T01:35:16;13.10;99.90
42913;DHT22;50720;54.324;18.558;2023-07-09T01:37:48;13.10;99.90
42913;DHT22;50720;54.324;18.558;2023-07-09T01:40:20;13.10;99.90
42913;DHT22;50720;54.324;18.558;2023-07-09T01:43:01;13.20;99.90
42913;DHT22;50720;54.324;18.558;2023-07-09T01:45:35;13.10;99.90
42913;DHT22;50720;54.324;18.558;2023-07-09T01:48:05;13.00;99.90
42913;DHT22;50720;54.324;18.558;2023-07-09T01:50:42;13.00;99.90
42913;DHT22;50720;54.324;18.558;2023-07-09T01:53:15;12.90;99.90
42913;DHT22;50720;54.324;18.558;2023-07-09T01:55:45;12.90;99.90
42913;DHT22;50720;54.324;18.558;2023-07-09T01:58:15;12.90;99.90
42913;DHT22;50720;54.324;18.558;2023-07-09T02:00:45;12.90;99.90
42913;DHT22;50720;54.324;18.558;2023-07-09T02:03:15;12.90;99.90
42913;DHT22;50720;54.324;18.558;2023-07-09T02:05:45;12.90;99.90
42913;DHT22;50720;54.324;18.558;2023-07-09T02:08:17;12.90;99.90
42913;DHT22;50720;54.324;18.558;2023-07-09T02:10:48;12.90;99.90
42913;DHT22;50720;54.324;18.558;2023-07-09T02:13:19;12.90;99.90
42913;DHT22;50720;54.324;18.558;2023-07-09T02:15:48;12.90;99.90
42913;DHT22;50720;54.324;18.558;2023-07-09T02:18:18;12.90;99.90
42913;DHT22;50720;54.324;18.558;2023-07-09T02:20:48;13.00;99.90
42913;DHT22;50720;54.324;18.558;2023-07-09T02:23:20;13.00;99.90
42913;DHT22;50720;54.324;18.558;2023-07-09T02:25:49;13.00;99.90
42913;DHT22;50720;54.324;18.558;2023-07-09T02:28:19;13.00;99.90
42913;DHT22;50720;54.324;18.558;2023-07-09T02:30:49;13.00;99.90
42913;DHT22;50720;54.324;18.558;2023-07-09T02:33:21;13.00;99.90
42913;DHT22;50720;54.324;18.558;2023-07-09T02:35:51;13.00;99.90
42913;DHT22;50720;54.324;18.558;2023-07-09T02:38:23;13.00;99.90
42913;DHT22;50720;54.324;18.558;2023-07-09T02:40:53;13.00;99.90
42913;DHT22;50720;54.324;18.558;2023-07-09T02:43:23;13.00;99.90
42913;DHT22;50720;54.324;18.558;2023-07-09T02:45:52;13.00;99.90
42913;DHT22;50720;54.324;18.558;2023-07-09T02:48:22;13.10;99.90
42913;DHT22;50720;54.324;18.558;2023-07-09T02:50:52;13.10;99.90
42913;DHT22;50720;54.324;18.558;2023-07-09T02:53:24;13.10;99.90
42913;DHT22;50720;54.324;18.558;2023-07-09T02:55:53;13.00;99.90
42913;DHT22;50720;54.324;18.558;2023-07-09T02:58:24;13.00;99.90
42913;DHT22;50720;54.324;18.558;2023-07-09T03:00:53;12.90;99.90
42913;DHT22;50720;54.324;18.558;2023-07-09T03:03:24;12.90;99.90
42913;DHT22;50720;54.324;18.558;2023-07-09T03:05:53;13.00;99.90
42913;DHT22;50720;54.324;18.558;2023-07-09T03:08:25;13.00;99.90
42913;DHT22;50720;54.324;18.558;2023-07-09T03:10:54;13.10;99.90
42913;DHT22;50720;54.324;18.558;2023-07-09T03:13:25;13.10;99.90
42913;DHT22;50720;54.324;18.558;2023-07-09T03:15:55;13.10;99.90
42913;DHT22;50720;54.324;18.558;2023-07-09T03:18:25;13.10;99.90
42913;DHT22;50720;54.324;18.558;2023-07-09T03:20:54;13.00;99.90
42913;DHT22;50720;54.324;18.558;2023-07-09T03:23:26;13.10;99.90
42913;DHT22;50720;54.324;18.558;2023-07-09T03:25:56;13.10;99.90
42913;DHT22;50720;54.324;18.558;2023-07-09T03:28:30;13.10;99.90
42913;DHT22;50720;54.324;18.558;2023-07-09T03:31:00;13.20;99.90
42913;DHT22;50720;54.324;18.558;2023-07-09T03:33:29;13.30;99.90
42913;DHT22;50720;54.324;18.558;2023-07-09T03:35:59;13.30;99.90
42913;DHT22;50720;54.324;18.558;2023-07-09T03:38:31;13.40;99.90
42913;DHT22;50720;54.324;18.558;2023-07-09T03:41:01;13.50;99.90
42913;DHT22;50720;54.324;18.558;2023-07-09T03:43:32;13.60;99.90
42913;DHT22;50720;54.324;18.558;2023-07-09T03:46:01;13.70;99.90
42913;DHT22;50720;54.324;18.558;2023-07-09T03:48:32;13.70;99.90
42913;DHT22;50720;54.324;18.558;2023-07-09T03:51:02;13.70;99.90
42913;DHT22;50720;54.324;18.558;2023-07-09T03:53:34;13.70;99.90
42913;DHT22;50720;54.324;18.558;2023-07-09T03:56:04;13.80;99.90
42913;DHT22;50720;54.324;18.558;2023-07-09T03:58:35;13.90;99.90
42913;DHT22;50720;54.324;18.558;2023-07-09T04:01:05;13.90;99.90
42913;DHT22;50720;54.324;18.558;2023-07-09T04:03:35;13.90;99.90
42913;DHT22;50720;54.324;18.558;2023-07-09T04:06:05;13.90;99.90
42913;DHT22;50720;54.324;18.558;2023-07-09T04:08:37;14.00;99.90
42913;DHT22;50720;54.324;18.558;2023-07-09T04:11:07;14.10;99.90
42913;DHT22;50720;54.324;18.558;2023-07-09T04:13:37;14.20;99.90
42913;DHT22;50720;54.324;18.558;2023-07-09T04:16:06;14.30;99.90
42913;DHT22;50720;54.324;18.558;2023-07-09T04:18:37;14.40;99.90
42913;DHT22;50720;54.324;18.558;2023-07-09T04:21:06;14.60;99.90
42913;DHT22;50720;54.324;18.558;2023-07-09T04:23:38;14.80;99.90
42913;DHT22;50720;54.324;18.558;2023-07-09T04:26:09;14.90;99.90
42913;DHT22;50720;54.324;18.558;2023-07-09T04:28:42;15.00;99.90
42913;DHT22;50720;54.324;18.558;2023-07-09T04:31:11;15.20;99.90
42913;DHT22;50720;54.324;18.558;2023-07-09T04:33:42;15.30;99.90
42913;DHT22;50720;54.324;18.558;2023-07-09T04:36:13;15.50;99.90
42913;DHT22;50720;54.324;18.558;2023-07-09T04:38:44;15.60;99.90
42913;DHT22;50720;54.324;18.558;2023-07-09T04:41:14;15.70;99.90
42913;DHT22;50720;54.324;18.558;2023-07-09T04:43:44;15.80;99.90
42913;DHT22;50720;54.324;18.558;2023-07-09T04:46:13;15.90;99.90
42913;DHT22;50720;54.324;18.558;2023-07-09T04:48:44;15.90;99.90
42913;DHT22;50720;54.324;18.558;2023-07-09T04:51:14;16.00;99.90
42913;DHT22;50720;54.324;18.558;2023-07-09T04:53:47;16.00;99.90
42913;DHT22;50720;54.324;18.558;2023-07-09T04:56:19;16.00;99.90
42913;DHT22;50720;54.324;18.558;2023-07-09T04:58:49;16.00;99.90
42913;DHT22;50720;54.324;18.558;2023-07-09T05:01:19;16.00;99.90
42913;DHT22;50720;54.324;18.558;2023-07-09T05:03:49;15.90;99.90
42913;DHT22;50720;54.324;18.558;2023-07-09T05:06:18;16.00;99.90
42913;DHT22;50720;54.324;18.558;2023-07-09T05:08:51;16.00;99.90
42913;DHT22;50720;54.324;18.558;2023-07-09T05:11:20;15.90;99.90
42913;DHT22;50720;54.324;18.558;2023-07-09T05:13:51;15.90;99.90
42913;DHT22;50720;54.324;18.558;2023-07-09T05:16:20;16.00;99.90
42913;DHT22;50720;54.324;18.558;2023-07-09T05:18:50;16.10;99.90
42913;DHT22;50720;54.324;18.558;2023-07-09T05:21:20;16.20;99.90
42913;DHT22;50720;54.324;18.558;2023-07-09T05:23:51;16.30;99.90
42913;DHT22;50720;54.324;18.558;2023-07-09T05:26:21;16.60;99.90
42913;DHT22;50720;54.324;18.558;2023-07-09T05:28:51;16.80;99.90
42913;DHT22;50720;54.324;18.558;2023-07-09T05:31:21;16.90;99.90
42913;DHT22;50720;54.324;18.558;2023-07-09T05:33:54;16.90;99.90
42913;DHT22;50720;54.324;18.558;2023-07-09T05:36:24;17.00;99.90
42913;DHT22;50720;54.324;18.558;2023-07-09T05:38:56;17.10;99.90
42913;DHT22;50720;54.324;18.558;2023-07-09T05:41:26;17.30;99.90
42913;DHT22;50720;54.324;18.558;2023-07-09T05:43:55;17.50;99.90
42913;DHT22;50720;54.324;18.558;2023-07-09T05:46:25;17.70;99.90
42913;DHT22;50720;54.324;18.558;2023-07-09T05:48:55;17.90;99.90
42913;DHT22;50720;54.324;18.558;2023-07-09T05:51:25;18.00;99.90
42913;DHT22;50720;54.324;18.558;2023-07-09T05:53:56;18.10;99.90
42913;DHT22;50720;54.324;18.558;2023-07-09T05:56:26;18.30;99.90
42913;DHT22;50720;54.324;18.558;2023-07-09T05:58:57;18.50;99.90
42913;DHT22;50720;54.324;18.558;2023-07-09T06:01:27;18.70;99.90
42913;DHT22;50720;54.324;18.558;2023-07-09T06:03:57;18.90;99.90
42913;DHT22;50720;54.324;18.558;2023-07-09T06:06:27;19.00;99.90
42913;DHT22;50720;54.324;18.558;2023-07-09T06:08:58;19.00;99.90
42913;DHT22;50720;54.324;18.558;2023-07-09T06:11:27;19.10;99.90
42913;DHT22;50720;54.324;18.558;2023-07-09T06:13:58;19.20;99.90
42913;DHT22;50720;54.324;18.558;2023-07-09T06:16:29;19.30;99.90
42913;DHT22;50720;54.324;18.558;2023-07-09T06:18:59;19.40;99.90
42913;DHT22;50720;54.324;18.558;2023-07-09T06:21:28;19.50;99.90
42913;DHT22;50720;54.324;18.558;2023-07-09T06:23:59;19.60;99.90
42913;DHT22;50720;54.324;18.558;2023-07-09T06:26:29;19.70;99.90
42913;DHT22;50720;54.324;18.558;2023-07-09T06:29:00;19.70;99.90
42913;DHT22;50720;54.324;18.558;2023-07-09T06:31:30;19.80;99.90
42913;DHT22;50720;54.324;18.558;2023-07-09T06:34:03;19.90;99.90
42913;DHT22;50720;54.324;18.558;2023-07-09T06:36:34;19.90;99.90
42913;DHT22;50720;54.324;18.558;2023-07-09T06:39:06;19.90;99.90
42913;DHT22;50720;54.324;18.558;2023-07-09T06:41:35;20.00;99.90
42913;DHT22;50720;54.324;18.558;2023-07-09T06:44:07;20.00;99.90
42913;DHT22;50720;54.324;18.558;2023-07-09T06:46:37;20.10;99.90
42913;DHT22;50720;54.324;18.558;2023-07-09T06:49:07;20.10;99.90
42913;DHT22;50720;54.324;18.558;2023-07-09T06:51:37;20.20;99.90
42913;DHT22;50720;54.324;18.558;2023-07-09T06:54:09;20.30;99.90
42913;DHT22;50720;54.324;18.558;2023-07-09T06:56:38;20.50;99.90
42913;DHT22;50720;54.324;18.558;2023-07-09T06:59:08;20.70;99.90
42913;DHT22;50720;54.324;18.558;2023-07-09T07:01:38;20.70;99.90
42913;DHT22;50720;54.324;18.558;2023-07-09T07:04:08;20.80;99.90
42913;DHT22;50720;54.324;18.558;2023-07-09T07:06:38;20.80;99.90
42913;DHT22;50720;54.324;18.558;2023-07-09T07:09:09;20.90;99.90
42913;DHT22;50720;54.324;18.558;2023-07-09T07:11:39;21.00;99.90
42913;DHT22;50720;54.324;18.558;2023-07-09T07:14:09;21.10;99.90
42913;DHT22;50720;54.324;18.558;2023-07-09T07:16:38;21.20;99.90
42913;DHT22;50720;54.324;18.558;2023-07-09T07:19:09;21.20;99.90
42913;DHT22;50720;54.324;18.558;2023-07-09T07:21:38;21.20;99.90
42913;DHT22;50720;54.324;18.558;2023-07-09T07:24:10;21.30;99.90
42913;DHT22;50720;54.324;18.558;2023-07-09T07:26:40;21.50;99.90
42913;DHT22;50720;54.324;18.558;2023-07-09T07:29:10;21.50;99.90
42913;DHT22;50720;54.324;18.558;2023-07-09T07:31:40;21.60;99.90
42913;DHT22;50720;54.324;18.558;2023-07-09T07:34:10;21.70;99.90
42913;DHT22;50720;54.324;18.558;2023-07-09T07:36:40;21.70;99.90
42913;DHT22;50720;54.324;18.558;2023-07-09T07:39:12;21.70;99.90
42913;DHT22;50720;54.324;18.558;2023-07-09T07:41:43;21.80;99.90
42913;DHT22;50720;54.324;18.558;2023-07-09T07:44:13;21.80;99.90
42913;DHT22;50720;54.324;18.558;2023-07-09T07:46:42;21.90;99.90
42913;DHT22;50720;54.324;18.558;2023-07-09T07:49:13;21.90;99.90
42913;DHT22;50720;54.324;18.558;2023-07-09T07:51:43;21.90;99.90
42913;DHT22;50720;54.324;18.558;2023-07-09T07:54:14;21.80;99.90
42913;DHT22;50720;54.324;18.558;2023-07-09T07:56:46;21.90;99.90
42913;DHT22;50720;54.324;18.558;2023-07-09T07:59:17;22.00;99.90
42913;DHT22;50720;54.324;18.558;2023-07-09T08:01:47;22.10;99.90
42913;DHT22;50720;54.324;18.558;2023-07-09T08:04:18;22.00;99.90
42913;DHT22;50720;54.324;18.558;2023-07-09T08:06:48;22.10;99.90
42913;DHT22;50720;54.324;18.558;2023-07-09T08:09:19;22.20;99.90
42913;DHT22;50720;54.324;18.558;2023-07-09T08:11:49;22.20;99.90
42913;DHT22;50720;54.324;18.558;2023-07-09T08:14:20;22.30;99.90
42913;DHT22;50720;54.324;18.558;2023-07-09T08:16:49;22.40;99.90
42913;DHT22;50720;54.324;18.558;2023-07-09T08:19:20;22.40;99.90
42913;DHT22;50720;54.324;18.558;2023-07-09T08:21:49;22.40;99.90
42913;DHT22;50720;54.324;18.558;2023-07-09T08:24:20;22.50;99.90
42913;DHT22;50720;54.324;18.558;2023-07-09T08:26:50;22.60;99.90
42913;DHT22;50720;54.324;18.558;2023-07-09T08:29:20;22.70;99.90
42913;DHT22;50720;54.324;18.558;2023-07-09T08:31:50;22.70;99.90
42913;DHT22;50720;54.324;18.558;2023-07-09T08:34:20;22.70;99.90
42913;DHT22;50720;54.324;18.558;2023-07-09T08:36:49;22.90;99.90
42913;DHT22;50720;54.324;18.558;2023-07-09T08:39:21;22.90;99.90
42913;DHT22;50720;54.324;18.558;2023-07-09T08:41:54;23.10;99.90
42913;DHT22;50720;54.324;18.558;2023-07-09T08:44:56;23.30;99.90
42913;DHT22;50720;54.324;18.558;2023-07-09T08:47:33;23.20;99.90
42913;DHT22;50720;54.324;18.558;2023-07-09T08:50:10;23.40;99.90
42913;DHT22;50720;54.324;18.558;2023-07-09T08:52:42;23.20;99.90
42913;DHT22;50720;54.324;18.558;2023-07-09T08:55:18;23.00;99.90
42913;DHT22;50720;54.324;18.558;2023-07-09T08:57:53;23.00;99.90
42913;DHT22;50720;54.324;18.558;2023-07-09T09:00:29;23.00;99.90
42913;DHT22;50720;54.324;18.558;2023-07-09T09:03:01;23.20;99.90
42913;DHT22;50720;54.324;18.558;2023-07-09T09:05:34;23.40;99.90
42913;DHT22;50720;54.324;18.558;2023-07-09T09:08:16;23.50;99.90
42913;DHT22;50720;54.324;18.558;2023-07-09T09:10:56;23.70;99.90
42913;DHT22;50720;54.324;18.558;2023-07-09T09:13:30;23.70;99.90
42913;DHT22;50720;54.324;18.558;2023-07-09T09:16:05;23.70;99.90
42913;DHT22;50720;54.324;18.558;2023-07-09T09:18:40;23.70;99.90
42913;DHT22;50720;54.324;18.558;2023-07-09T09:21:16;23.90;99.90
42913;DHT22;50720;54.324;18.558;2023-07-09T09:23:49;23.90;99.90
42913;DHT22;50720;54.324;18.558;2023-07-09T09:26:27;24.00;99.90
42913;DHT22;50720;54.324;18.558;2023-07-09T09:28:58;24.10;99.90
42913;DHT22;50720;54.324;18.558;2023-07-09T09:31:28;24.20;99.90
42913;DHT22;50720;54.324;18.558;2023-07-09T09:33:58;24.30;99.90
42913;DHT22;50720;54.324;18.558;2023-07-09T09:36:28;24.30;99.90
42913;DHT22;50720;54.324;18.558;2023-07-09T09:39:02;24.30;99.90
42913;DHT22;50720;54.324;18.558;2023-07-09T09:41:37;24.40;99.90
42913;DHT22;50720;54.324;18.558;2023-07-09T09:44:18;24.50;99.90
42913;DHT22;50720;54.324;18.558;2023-07-09T09:46:49;24.50;99.90
42913;DHT22;50720;54.324;18.558;2023-07-09T09:49:18;24.40;99.90
42913;DHT22;50720;54.324;18.558;2023-07-09T09:51:48;24.30;99.90
42913;DHT22;50720;54.324;18.558;2023-07-09T09:54:21;24.30;99.90
42913;DHT22;50720;54.324;18.558;2023-07-09T09:56:53;24.40;99.90
42913;DHT22;50720;54.324;18.558;2023-07-09T09:59:27;24.60;99.90
42913;DHT22;50720;54.324;18.558;2023-07-09T10:02:00;24.80;99.90
42913;DHT22;50720;54.324;18.558;2023-07-09T10:04:31;24.80;99.90
42913;DHT22;50720;54.324;18.558;2023-07-09T10:07:05;24.90;99.70
42913;DHT22;50720;54.324;18.558;2023-07-09T10:09:45;25.00;99.90
42913;DHT22;50720;54.324;18.558;2023-07-09T10:12:30;25.00;99.90
42913;DHT22;50720;54.324;18.558;2023-07-09T10:15:12;25.00;99.70
42913;DHT22;50720;54.324;18.558;2023-07-09T10:17:52;25.10;99.90
42913;DHT22;50720;54.324;18.558;2023-07-09T10:20:25;25.20;99.70
42913;DHT22;50720;54.324;18.558;2023-07-09T10:23:02;25.10;99.40
42913;DHT22;50720;54.324;18.558;2023-07-09T10:25:38;25.00;99.40
42913;DHT22;50720;54.324;18.558;2023-07-09T10:28:22;25.10;99.20
42913;DHT22;50720;54.324;18.558;2023-07-09T10:31:03;25.00;99.90
42913;DHT22;50720;54.324;18.558;2023-07-09T10:33:46;25.20;99.20
42913;DHT22;50720;54.324;18.558;2023-07-09T10:36:28;25.40;98.60
42913;DHT22;50720;54.324;18.558;2023-07-09T10:39:03;25.30;98.10
42913;DHT22;50720;54.324;18.558;2023-07-09T10:41:36;25.30;96.60
42913;DHT22;50720;54.324;18.558;2023-07-09T10:44:11;25.20;96.60
42913;DHT22;50720;54.324;18.558;2023-07-09T10:46:49;25.30;96.90
42913;DHT22;50720;54.324;18.558;2023-07-09T10:49:21;25.50;95.90
42913;DHT22;50720;54.324;18.558;2023-07-09T10:51:54;25.70;95.80
42913;DHT22;50720;54.324;18.558;2023-07-09T10:54:32;25.80;94.90
42913;DHT22;50720;54.324;18.558;2023-07-09T10:57:08;26.00;94.20
42913;DHT22;50720;54.324;18.558;2023-07-09T10:59:41;26.70;93.90
42913;DHT22;50720;54.324;18.558;2023-07-09T11:02:19;27.60;92.20
42913;DHT22;50720;54.324;18.558;2023-07-09T11:04:52;28.20;89.60
42913;DHT22;50720;54.324;18.558;2023-07-09T11:07:27;28.90;85.00
42913;DHT22;50720;54.324;18.558;2023-07-09T11:10:00;29.20;78.10
42913;DHT22;50720;54.324;18.558;2023-07-09T11:12:35;29.50;76.60
42913;DHT22;50720;54.324;18.558;2023-07-09T11:15:12;29.40;74.50
42913;DHT22;50720;54.324;18.558;2023-07-09T11:17:45;29.60;74.60
42913;DHT22;50720;54.324;18.558;2023-07-09T11:20:18;29.70;72.60
42913;DHT22;50720;54.324;18.558;2023-07-09T11:22:53;29.90;71.30
42913;DHT22;50720;54.324;18.558;2023-07-09T11:25:30;30.20;71.80
42913;DHT22;50720;54.324;18.558;2023-07-09T11:28:04;30.40;69.70
42913;DHT22;50720;54.324;18.558;2023-07-09T11:30:47;30.30;68.40
42913;DHT22;50720;54.324;18.558;2023-07-09T11:33:18;30.20;68.10
42913;DHT22;50720;54.324;18.558;2023-07-09T11:35:54;30.10;68.40
42913;DHT22;50720;54.324;18.558;2023-07-09T11:38:40;30.30;68.20
42913;DHT22;50720;54.324;18.558;2023-07-09T11:41:39;30.80;66.20
42913;DHT22;50720;54.324;18.558;2023-07-09T11:44:16;30.70;64.20
42913;DHT22;50720;54.324;18.558;2023-07-09T11:47:16;30.80;65.70
42913;DHT22;50720;54.324;18.558;2023-07-09T11:49:50;30.40;64.80
42913;DHT22;50720;54.324;18.558;2023-07-09T11:52:26;31.00;63.90
42913;DHT22;50720;54.324;18.558;2023-07-09T11:54:57;31.30;62.90
42913;DHT22;50720;54.324;18.558;2023-07-09T11:57:28;31.10;62.00
42913;DHT22;50720;54.324;18.558;2023-07-09T11:59:59;30.90;61.80
42913;DHT22;50720;54.324;18.558;2023-07-09T12:02:33;31.10;64.90
42913;DHT22;50720;54.324;18.558;2023-07-09T12:05:04;31.40;61.70
42913;DHT22;50720;54.324;18.558;2023-07-09T12:07:35;31.40;62.70
42913;DHT22;50720;54.324;18.558;2023-07-09T12:10:18;31.50;62.60
42913;DHT22;50720;54.324;18.558;2023-07-09T12:12:53;31.30;61.80
42913;DHT22;50720;54.324;18.558;2023-07-09T12:15:25;31.50;60.00
42913;DHT22;50720;54.324;18.558;2023-07-09T12:17:59;31.90;60.90
42913;DHT22;50720;54.324;18.558;2023-07-09T12:20:31;31.80;59.70
42913;DHT22;50720;54.324;18.558;2023-07-09T12:23:10;31.70;59.40
42913;DHT22;50720;54.324;18.558;2023-07-09T12:25:47;31.80;60.20
42913;DHT22;50720;54.324;18.558;2023-07-09T12:28:19;32.00;60.80
42913;DHT22;50720;54.324;18.558;2023-07-09T12:30:50;32.20;59.90
42913;DHT22;50720;54.324;18.558;2023-07-09T12:33:25;32.10;59.30
42913;DHT22;50720;54.324;18.558;2023-07-09T12:35:57;31.90;58.50
42913;DHT22;50720;54.324;18.558;2023-07-09T12:38:30;31.60;58.70
42913;DHT22;50720;54.324;18.558;2023-07-09T12:41:03;31.50;59.80
42913;DHT22;50720;54.324;18.558;2023-07-09T12:43:34;31.10;59.70
42913;DHT22;50720;54.324;18.558;2023-07-09T12:46:04;31.30;59.70
42913;DHT22;50720;54.324;18.558;2023-07-09T12:48:35;31.50;59.20
42913;DHT22;50720;54.324;18.558;2023-07-09T12:51:08;31.80;59.60
42913;DHT22;50720;54.324;18.558;2023-07-09T12:53:39;31.90;58.40
42913;DHT22;50720;54.324;18.558;2023-07-09T12:56:12;32.20;58.60
42913;DHT22;50720;54.324;18.558;2023-07-09T12:58:42;32.60;58.00
42913;DHT22;50720;54.324;18.558;2023-07-09T13:01:15;32.70;57.30
42913;DHT22;50720;54.324;18.558;2023-07-09T13:03:54;32.00;57.90
42913;DHT22;50720;54.324;18.558;2023-07-09T13:06:27;31.90;59.40
42913;DHT22;50720;54.324;18.558;2023-07-09T13:08:59;31.60;57.90
42913;DHT22;50720;54.324;18.558;2023-07-09T13:11:33;31.80;58.40
42913;DHT22;50720;54.324;18.558;2023-07-09T13:14:04;31.80;58.00
42913;DHT22;50720;54.324;18.558;2023-07-09T13:16:38;31.80;57.80
42913;DHT22;50720;54.324;18.558;2023-07-09T13:19:13;31.30;58.60
42913;DHT22;50720;54.324;18.558;2023-07-09T13:21:43;30.70;58.90
42913;DHT22;50720;54.324;18.558;2023-07-09T13:24:13;29.80;60.30
42913;DHT22;50720;54.324;18.558;2023-07-09T13:26:45;29.40;62.00
42913;DHT22;50720;54.324;18.558;2023-07-09T13:29:16;29.00;63.20
42913;DHT22;50720;54.324;18.558;2023-07-09T13:31:48;28.40;63.00
42913;DHT22;50720;54.324;18.558;2023-07-09T13:34:21;27.90;64.90
42913;DHT22;50720;54.324;18.558;2023-07-09T13:36:53;27.70;66.50
42913;DHT22;50720;54.324;18.558;2023-07-09T13:39:24;27.40;66.20
42913;DHT22;50720;54.324;18.558;2023-07-09T13:41:56;27.00;67.20
42913;DHT22;50720;54.324;18.558;2023-07-09T13:44:28;26.90;68.60
42913;DHT22;50720;54.324;18.558;2023-07-09T13:46:59;27.10;68.10
42913;DHT22;50720;54.324;18.558;2023-07-09T13:49:30;27.40;68.10
42913;DHT22;50720;54.324;18.558;2023-07-09T13:52:00;27.90;68.90
42913;DHT22;50720;54.324;18.558;2023-07-09T13:54:31;28.60;68.30
42913;DHT22;50720;54.324;18.558;2023-07-09T13:57:05;29.30;66.00
42913;DHT22;50720;54.324;18.558;2023-07-09T13:59:35;29.60;64.90
42913;DHT22;50720;54.324;18.558;2023-07-09T14:02:22;29.90;65.00
42913;DHT22;50720;54.324;18.558;2023-07-09T14:04:54;30.20;64.70
42913;DHT22;50720;54.324;18.558;2023-07-09T14:07:29;30.60;62.40
42913;DHT22;50720;54.324;18.558;2023-07-09T14:10:00;31.00;63.00
42913;DHT22;50720;54.324;18.558;2023-07-09T14:12:31;30.90;60.80
42913;DHT22;50720;54.324;18.558;2023-07-09T14:15:01;30.80;62.00
42913;DHT22;50720;54.324;18.558;2023-07-09T14:17:32;30.60;63.20
42913;DHT22;50720;54.324;18.558;2023-07-09T14:20:03;31.20;62.60
42913;DHT22;50720;54.324;18.558;2023-07-09T14:22:34;31.00;62.50
42913;DHT22;50720;54.324;18.558;2023-07-09T14:25:06;30.90;63.60
42913;DHT22;50720;54.324;18.558;2023-07-09T14:27:36;30.90;64.40
42913;DHT22;50720;54.324;18.558;2023-07-09T14:30:06;30.80;64.10
42913;DHT22;50720;54.324;18.558;2023-07-09T14:32:37;30.80;64.30
42913;DHT22;50720;54.324;18.558;2023-07-09T14:35:13;30.90;64.60
42913;DHT22;50720;54.324;18.558;2023-07-09T14:37:46;31.00;63.60
42913;DHT22;50720;54.324;18.558;2023-07-09T14:40:17;30.80;64.80
42913;DHT22;50720;54.324;18.558;2023-07-09T14:42:48;30.80;64.30
42913;DHT22;50720;54.324;18.558;2023-07-09T14:45:21;31.00;65.20
42913;DHT22;50720;54.324;18.558;2023-07-09T14:47:52;30.70;64.20
42913;DHT22;50720;54.324;18.558;2023-07-09T14:50:25;30.60;64.80
42913;DHT22;50720;54.324;18.558;2023-07-09T14:52:55;30.50;64.90
42913;DHT22;50720;54.324;18.558;2023-07-09T14:55:25;30.70;65.40
42913;DHT22;50720;54.324;18.558;2023-07-09T14:57:55;30.70;65.10
42913;DHT22;50720;54.324;18.558;2023-07-09T15:00:27;30.70;66.10
42913;DHT22;50720;54.324;18.558;2023-07-09T15:02:57;30.80;65.00
42913;DHT22;50720;54.324;18.558;2023-07-09T15:05:28;30.80;65.10
42913;DHT22;50720;54.324;18.558;2023-07-09T15:07:58;30.50;65.90
42913;DHT22;50720;54.324;18.558;2023-07-09T15:10:29;30.30;66.60
42913;DHT22;50720;54.324;18.558;2023-07-09T15:12:59;29.70;68.50
42913;DHT22;50720;54.324;18.558;2023-07-09T15:15:30;29.40;69.90
42913;DHT22;50720;54.324;18.558;2023-07-09T15:18:09;29.10;70.80
42913;DHT22;50720;54.324;18.558;2023-07-09T15:20:43;29.00;72.20
42913;DHT22;50720;54.324;18.558;2023-07-09T15:23:15;29.40;72.40
42913;DHT22;50720;54.324;18.558;2023-07-09T15:25:45;29.40;70.70
42913;DHT22;50720;54.324;18.558;2023-07-09T15:28:15;29.20;71.30
42913;DHT22;50720;54.324;18.558;2023-07-09T15:30:45;29.20;72.40
42913;DHT22;50720;54.324;18.558;2023-07-09T15:33:16;29.20;72.40
42913;DHT22;50720;54.324;18.558;2023-07-09T15:35:49;29.50;73.00
42913;DHT22;50720;54.324;18.558;2023-07-09T15:38:28;29.50;72.70
42913;DHT22;50720;54.324;18.558;2023-07-09T15:40:58;30.00;72.60
42913;DHT22;50720;54.324;18.558;2023-07-09T15:43:29;29.90;72.40
42913;DHT22;50720;54.324;18.558;2023-07-09T15:45:59;29.70;71.90
42913;DHT22;50720;54.324;18.558;2023-07-09T15:48:32;30.00;73.00